sensor_id;sensor_type;location;lat;lon;timestamp;P1;durP1;ratioP1;P2;durP2;ratioP2
10450;SDS011;5273;51.290;6.918;2024-02-15T00:02:22;14.43;;;8.52;;
10450;SDS011;5273;51.290;6.918;2024-02-15T00:04:50;13.77;;;8.10;;
10450;SDS011;5273;51.290;6.918;2024-02-15T00:07:17;12.98;;;8.63;;
10450;SDS011;5273;51.290;6.918;2024-02-15T00:09:47;12.02;;;8.40;;
10450;SDS011;5273;51.290;6.918;2024-02-15T00:12:14;17.88;;;9.93;;
10450;SDS011;5273;51.290;6.918;2024-02-15T00:14:41;14.60;;;8.23;;
10450;SDS011;5273;51.290;6.918;2024-02-15T00:17:08;15.85;;;8.73;;
10450;SDS011;5273;51.290;6.918;2024-02-15T00:19:36;16.58;;;9.20;;
10450;SDS011;5273;51.290;6.918;2024-02-15T00:22:05;17.75;;;9.90;;
10450;SDS011;5273;51.290;6.918;2024-02-15T00:24:32;19.63;;;9.25;;
10450;SDS011;5273;51.290;6.918;2024-02-15T00:26:59;15.13;;;8.73;;
10450;SDS011;5273;51.290;6.918;2024-02-15T00:29:26;12.63;;;8.52;;
10450;SDS011;5273;51.290;6.918;2024-02-15T00:31:54;19.67;;;9.57;;
10450;SDS011;5273;51.290;6.918;2024-02-15T00:34:20;14.98;;;8.40;;
10450;SDS011;5273;51.290;6.918;2024-02-15T00:36:47;18.63;;;8.70;;
10450;SDS011;5273;51.290;6.918;2024-02-15T00:39:16;13.45;;;9.07;;
10450;SDS011;5273;51.290;6.918;2024-02-15T00:41:43;17.67;;;8.98;;
10450;SDS011;5273;51.290;6.918;2024-02-15T00:44:10;14.63;;;8.00;;
10450;SDS011;5273;51.290;6.918;2024-02-15T00:46:37;17.38;;;9.50;;
10450;SDS011;5273;51.290;6.918;2024-02-15T00:49:06;14.63;;;9.75;;
10450;SDS011;5273;51.290;6.918;2024-02-15T00:51:36;11.80;;;8.82;;
10450;SDS011;5273;51.290;6.918;2024-02-15T00:54:03;17.27;;;10.35;;
10450;SDS011;5273;51.290;6.918;2024-02-15T00:56:31;16.77;;;10.32;;
10450;SDS011;5273;51.290;6.918;2024-02-15T00:58:58;16.63;;;10.15;;
10450;SDS011;5273;51.290;6.918;2024-02-15T01:01:26;15.40;;;9.65;;
10450;SDS011;5273;51.290;6.918;2024-02-15T01:03:53;15.93;;;9.98;;
10450;SDS011;5273;51.290;6.918;2024-02-15T01:06:20;15.18;;;10.77;;
10450;SDS011;5273;51.290;6.918;2024-02-15T01:08:47;20.33;;;11.43;;
10450;SDS011;5273;51.290;6.918;2024-02-15T01:11:14;15.32;;;10.40;;
10450;SDS011;5273;51.290;6.918;2024-02-15T01:13:42;20.27;;;11.05;;
10450;SDS011;5273;51.290;6.918;2024-02-15T01:16:10;16.40;;;10.07;;
10450;SDS011;5273;51.290;6.918;2024-02-15T01:18:37;17.80;;;10.23;;
10450;SDS011;5273;51.290;6.918;2024-02-15T01:21:04;18.55;;;10.70;;
10450;SDS011;5273;51.290;6.918;2024-02-15T01:23:31;15.35;;;9.45;;
10450;SDS011;5273;51.290;6.918;2024-02-15T01:26:00;14.02;;;9.05;;
10450;SDS011;5273;51.290;6.918;2024-02-15T01:28:27;17.85;;;8.80;;
10450;SDS011;5273;51.290;6.918;2024-02-15T01:30:55;11.85;;;8.85;;
10450;SDS011;5273;51.290;6.918;2024-02-15T01:33:22;15.07;;;9.65;;
10450;SDS011;5273;51.290;6.918;2024-02-15T01:35:49;16.40;;;8.93;;
10450;SDS011;5273;51.290;6.918;2024-02-15T01:38:15;13.98;;;8.30;;
10450;SDS011;5273;51.290;6.918;2024-02-15T01:40:42;16.67;;;8.40;;
10450;SDS011;5273;51.290;6.918;2024-02-15T01:43:09;12.57;;;7.68;;
10450;SDS011;5273;51.290;6.918;2024-02-15T01:45:36;23.20;;;8.98;;
10450;SDS011;5273;51.290;6.918;2024-02-15T01:48:04;14.88;;;7.90;;
10450;SDS011;5273;51.290;6.918;2024-02-15T01:50:32;12.80;;;8.02;;
10450;SDS011;5273;51.290;6.918;2024-02-15T01:53:00;13.20;;;7.88;;
10450;SDS011;5273;51.290;6.918;2024-02-15T01:55:31;16.10;;;8.07;;
10450;SDS011;5273;51.290;6.918;2024-02-15T01:57:58;13.80;;;7.43;;
10450;SDS011;5273;51.290;6.918;2024-02-15T02:00:26;13.68;;;7.47;;
10450;SDS011;5273;51.290;6.918;2024-02-15T02:02:53;14.68;;;6.72;;
10450;SDS011;5273;51.290;6.918;2024-02-15T02:05:28;11.63;;;6.88;;
10450;SDS011;5273;51.290;6.918;2024-02-15T02:07:55;15.25;;;6.95;;
10450;SDS011;5273;51.290;6.918;2024-02-15T02:10:24;11.90;;;7.50;;
10450;SDS011;5273;51.290;6.918;2024-02-15T02:12:52;12.77;;;7.18;;
10450;SDS011;5273;51.290;6.918;2024-02-15T02:15:19;13.05;;;7.57;;
10450;SDS011;5273;51.290;6.918;2024-02-15T02:17:48;16.13;;;7.40;;
10450;SDS011;5273;51.290;6.918;2024-02-15T02:20:15;13.75;;;7.45;;
10450;SDS011;5273;51.290;6.918;2024-02-15T02:22:44;20.70;;;8.55;;
10450;SDS011;5273;51.290;6.918;2024-02-15T02:25:14;10.73;;;7.60;;
10450;SDS011;5273;51.290;6.918;2024-02-15T02:27:42;14.13;;;7.47;;
10450;SDS011;5273;51.290;6.918;2024-02-15T02:30:12;20.65;;;8.18;;
10450;SDS011;5273;51.290;6.918;2024-02-15T02:32:42;16.13;;;7.10;;
10450;SDS011;5273;51.290;6.918;2024-02-15T02:35:09;14.05;;;7.80;;
10450;SDS011;5273;51.290;6.918;2024-02-15T02:37:37;13.02;;;7.22;;
10450;SDS011;5273;51.290;6.918;2024-02-15T02:40:05;11.23;;;7.22;;
10450;SDS011;5273;51.290;6.918;2024-02-15T02:42:35;14.15;;;7.57;;
10450;SDS011;5273;51.290;6.918;2024-02-15T02:45:03;12.00;;;7.13;;
10450;SDS011;5273;51.290;6.918;2024-02-15T02:47:31;15.63;;;7.90;;
10450;SDS011;5273;51.290;6.918;2024-02-15T02:49:58;13.20;;;7.55;;
10450;SDS011;5273;51.290;6.918;2024-02-15T02:52:24;13.05;;;7.50;;
10450;SDS011;5273;51.290;6.918;2024-02-15T02:54:51;13.20;;;7.25;;
10450;SDS011;5273;51.290;6.918;2024-02-15T02:57:18;17.83;;;7.55;;
10450;SDS011;5273;51.290;6.918;2024-02-15T02:59:46;12.43;;;7.43;;
10450;SDS011;5273;51.290;6.918;2024-02-15T03:02:13;15.45;;;7.07;;
10450;SDS011;5273;51.290;6.918;2024-02-15T03:04:40;20.02;;;8.45;;
10450;SDS011;5273;51.290;6.918;2024-02-15T03:07:07;13.90;;;7.25;;
10450;SDS011;5273;51.290;6.918;2024-02-15T03:09:33;13.82;;;7.70;;
10450;SDS011;5273;51.290;6.918;2024-02-15T03:12:02;14.90;;;7.65;;
10450;SDS011;5273;51.290;6.918;2024-02-15T03:14:29;12.13;;;7.70;;
10450;SDS011;5273;51.290;6.918;2024-02-15T03:16:58;12.88;;;7.47;;
10450;SDS011;5273;51.290;6.918;2024-02-15T03:19:28;14.30;;;7.93;;
10450;SDS011;5273;51.290;6.918;2024-02-15T03:21:55;11.27;;;7.47;;
10450;SDS011;5273;51.290;6.918;2024-02-15T03:24:22;9.87;;;6.93;;
10450;SDS011;5273;51.290;6.918;2024-02-15T03:26:49;10.23;;;6.90;;
10450;SDS011;5273;51.290;6.918;2024-02-15T03:29:17;18.48;;;7.32;;
10450;SDS011;5273;51.290;6.918;2024-02-15T03:31:45;11.90;;;6.85;;
10450;SDS011;5273;51.290;6.918;2024-02-15T03:34:14;13.55;;;6.72;;
10450;SDS011;5273;51.290;6.918;2024-02-15T03:36:41;9.88;;;6.45;;
10450;SDS011;5273;51.290;6.918;2024-02-15T03:39:08;8.55;;;6.07;;
10450;SDS011;5273;51.290;6.918;2024-02-15T03:41:34;8.38;;;6.30;;
10450;SDS011;5273;51.290;6.918;2024-02-15T03:44:01;11.77;;;6.35;;
10450;SDS011;5273;51.290;6.918;2024-02-15T03:46:29;10.00;;;6.70;;
10450;SDS011;5273;51.290;6.918;2024-02-15T03:48:55;12.38;;;6.65;;
10450;SDS011;5273;51.290;6.918;2024-02-15T03:51:25;10.38;;;6.45;;
10450;SDS011;5273;51.290;6.918;2024-02-15T03:53:52;8.20;;;5.65;;
10450;SDS011;5273;51.290;6.918;2024-02-15T03:56:19;12.23;;;5.53;;
10450;SDS011;5273;51.290;6.918;2024-02-15T03:58:46;7.43;;;4.53;;
10450;SDS011;5273;51.290;6.918;2024-02-15T04:01:15;11.32;;;5.50;;
10450;SDS011;5273;51.290;6.918;2024-02-15T04:03:42;9.40;;;5.40;;
10450;SDS011;5273;51.290;6.918;2024-02-15T04:06:09;6.55;;;4.72;;
10450;SDS011;5273;51.290;6.918;2024-02-15T04:08:37;6.03;;;4.63;;
10450;SDS011;5273;51.290;6.918;2024-02-15T04:11:04;7.43;;;4.97;;
10450;SDS011;5273;51.290;6.918;2024-02-15T04:13:32;6.72;;;4.50;;
10450;SDS011;5273;51.290;6.918;2024-02-15T04:15:59;8.88;;;5.00;;
10450;SDS011;5273;51.290;6.918;2024-02-15T04:18:26;7.55;;;4.65;;
10450;SDS011;5273;51.290;6.918;2024-02-15T04:20:57;7.88;;;4.82;;
10450;SDS011;5273;51.290;6.918;2024-02-15T04:23:24;6.43;;;4.40;;
10450;SDS011;5273;51.290;6.918;2024-02-15T04:25:52;6.15;;;4.30;;
10450;SDS011;5273;51.290;6.918;2024-02-15T04:28:19;10.77;;;4.82;;
10450;SDS011;5273;51.290;6.918;2024-02-15T04:30:46;8.50;;;4.10;;
10450;SDS011;5273;51.290;6.918;2024-02-15T04:33:14;8.02;;;4.57;;
10450;SDS011;5273;51.290;6.918;2024-02-15T04:35:41;6.45;;;3.78;;
10450;SDS011;5273;51.290;6.918;2024-02-15T04:38:08;6.90;;;3.90;;
10450;SDS011;5273;51.290;6.918;2024-02-15T04:40:35;6.73;;;4.43;;
10450;SDS011;5273;51.290;6.918;2024-02-15T04:43:05;4.50;;;3.95;;
10450;SDS011;5273;51.290;6.918;2024-02-15T04:45:33;6.07;;;3.63;;
10450;SDS011;5273;51.290;6.918;2024-02-15T04:48:00;6.43;;;3.65;;
10450;SDS011;5273;51.290;6.918;2024-02-15T04:50:28;8.00;;;3.25;;
10450;SDS011;5273;51.290;6.918;2024-02-15T04:52:55;3.83;;;3.05;;
10450;SDS011;5273;51.290;6.918;2024-02-15T04:55:22;7.82;;;3.88;;
10450;SDS011;5273;51.290;6.918;2024-02-15T04:57:51;4.30;;;3.20;;
10450;SDS011;5273;51.290;6.918;2024-02-15T05:00:21;7.72;;;3.50;;
10450;SDS011;5273;51.290;6.918;2024-02-15T05:02:50;4.10;;;3.10;;
10450;SDS011;5273;51.290;6.918;2024-02-15T05:05:17;5.05;;;3.20;;
10450;SDS011;5273;51.290;6.918;2024-02-15T05:07:45;6.07;;;3.00;;
10450;SDS011;5273;51.290;6.918;2024-02-15T05:10:14;4.13;;;2.70;;
10450;SDS011;5273;51.290;6.918;2024-02-15T05:12:41;5.78;;;2.95;;
10450;SDS011;5273;51.290;6.918;2024-02-15T05:15:09;5.68;;;3.25;;
10450;SDS011;5273;51.290;6.918;2024-02-15T05:17:38;4.35;;;2.65;;
10450;SDS011;5273;51.290;6.918;2024-02-15T05:20:07;6.30;;;3.00;;
10450;SDS011;5273;51.290;6.918;2024-02-15T05:22:37;6.60;;;2.92;;
10450;SDS011;5273;51.290;6.918;2024-02-15T05:25:05;4.30;;;3.00;;
10450;SDS011;5273;51.290;6.918;2024-02-15T05:27:33;5.75;;;3.00;;
10450;SDS011;5273;51.290;6.918;2024-02-15T05:30:01;7.15;;;3.63;;
10450;SDS011;5273;51.290;6.918;2024-02-15T05:32:31;4.32;;;3.20;;
10450;SDS011;5273;51.290;6.918;2024-02-15T05:35:01;6.97;;;3.25;;
10450;SDS011;5273;51.290;6.918;2024-02-15T05:37:28;3.83;;;2.70;;
10450;SDS011;5273;51.290;6.918;2024-02-15T05:39:55;6.18;;;3.38;;
10450;SDS011;5273;51.290;6.918;2024-02-15T05:42:22;5.90;;;3.20;;
10450;SDS011;5273;51.290;6.918;2024-02-15T05:44:49;4.32;;;2.75;;
10450;SDS011;5273;51.290;6.918;2024-02-15T05:47:16;6.93;;;2.80;;
10450;SDS011;5273;51.290;6.918;2024-02-15T05:49:43;8.73;;;3.33;;
10450;SDS011;5273;51.290;6.918;2024-02-15T05:52:13;7.05;;;3.22;;
10450;SDS011;5273;51.290;6.918;2024-02-15T05:54:40;7.35;;;3.30;;
10450;SDS011;5273;51.290;6.918;2024-02-15T05:57:07;6.47;;;3.40;;
10450;SDS011;5273;51.290;6.918;2024-02-15T05:59:34;5.63;;;3.30;;
10450;SDS011;5273;51.290;6.918;2024-02-15T06:02:00;9.75;;;3.78;;
10450;SDS011;5273;51.290;6.918;2024-02-15T06:04:28;5.65;;;3.33;;
10450;SDS011;5273;51.290;6.918;2024-02-15T06:06:54;7.95;;;3.38;;
10450;SDS011;5273;51.290;6.918;2024-02-15T06:09:27;6.63;;;3.35;;
10450;SDS011;5273;51.290;6.918;2024-02-15T06:11:55;5.82;;;3.20;;
10450;SDS011;5273;51.290;6.918;2024-02-15T06:14:22;7.75;;;3.45;;
10450;SDS011;5273;51.290;6.918;2024-02-15T06:16:49;7.38;;;3.50;;
10450;SDS011;5273;51.290;6.918;2024-02-15T06:19:20;4.78;;;3.17;;
10450;SDS011;5273;51.290;6.918;2024-02-15T06:21:46;8.20;;;3.75;;
10450;SDS011;5273;51.290;6.918;2024-02-15T06:24:13;7.15;;;3.92;;
10450;SDS011;5273;51.290;6.918;2024-02-15T06:26:41;6.22;;;4.00;;
10450;SDS011;5273;51.290;6.918;2024-02-15T06:29:09;11.23;;;4.38;;
10450;SDS011;5273;51.290;6.918;2024-02-15T06:31:55;9.63;;;4.28;;
10450;SDS011;5273;51.290;6.918;2024-02-15T06:34:39;5.85;;;3.92;;
10450;SDS011;5273;51.290;6.918;2024-02-15T06:37:35;7.13;;;3.70;;
10450;SDS011;5273;51.290;6.918;2024-02-15T06:40:20;7.22;;;3.47;;
10450;SDS011;5273;51.290;6.918;2024-02-15T06:42:49;10.40;;;3.42;;
10450;SDS011;5273;51.290;6.918;2024-02-15T06:45:16;8.80;;;3.65;;
10450;SDS011;5273;51.290;6.918;2024-02-15T06:47:43;11.33;;;4.10;;
10450;SDS011;5273;51.290;6.918;2024-02-15T06:50:10;6.35;;;3.22;;
10450;SDS011;5273;51.290;6.918;2024-02-15T06:52:38;7.72;;;3.35;;
10450;SDS011;5273;51.290;6.918;2024-02-15T06:55:06;6.78;;;3.40;;
10450;SDS011;5273;51.290;6.918;2024-02-15T06:57:34;8.10;;;3.30;;
10450;SDS011;5273;51.290;6.918;2024-02-15T07:00:03;6.57;;;3.67;;
10450;SDS011;5273;51.290;6.918;2024-02-15T07:02:32;7.00;;;3.30;;
10450;SDS011;5273;51.290;6.918;2024-02-15T07:04:59;10.20;;;3.75;;
10450;SDS011;5273;51.290;6.918;2024-02-15T07:07:27;10.38;;;3.45;;
10450;SDS011;5273;51.290;6.918;2024-02-15T07:09:54;3.55;;;3.03;;
10450;SDS011;5273;51.290;6.918;2024-02-15T07:12:21;7.18;;;3.30;;
10450;SDS011;5273;51.290;6.918;2024-02-15T07:14:48;8.63;;;3.10;;
10450;SDS011;5273;51.290;6.918;2024-02-15T07:17:16;4.70;;;3.08;;
10450;SDS011;5273;51.290;6.918;2024-02-15T07:19:43;8.23;;;3.28;;
10450;SDS011;5273;51.290;6.918;2024-02-15T07:22:10;6.45;;;3.28;;
10450;SDS011;5273;51.290;6.918;2024-02-15T07:24:37;14.00;;;3.78;;
10450;SDS011;5273;51.290;6.918;2024-02-15T07:27:04;6.28;;;3.20;;
10450;SDS011;5273;51.290;6.918;2024-02-15T07:29:33;8.30;;;3.45;;
10450;SDS011;5273;51.290;6.918;2024-02-15T07:32:02;6.10;;;3.38;;
10450;SDS011;5273;51.290;6.918;2024-02-15T07:34:32;8.07;;;3.53;;
10450;SDS011;5273;51.290;6.918;2024-02-15T07:36:59;9.73;;;3.72;;
10450;SDS011;5273;51.290;6.918;2024-02-15T07:39:28;11.70;;;4.13;;
10450;SDS011;5273;51.290;6.918;2024-02-15T07:41:55;7.10;;;3.53;;
10450;SDS011;5273;51.290;6.918;2024-02-15T07:44:23;8.48;;;3.70;;
10450;SDS011;5273;51.290;6.918;2024-02-15T07:46:50;6.28;;;3.42;;
10450;SDS011;5273;51.290;6.918;2024-02-15T07:49:17;9.10;;;3.63;;
10450;SDS011;5273;51.290;6.918;2024-02-15T07:51:45;10.70;;;4.00;;
10450;SDS011;5273;51.290;6.918;2024-02-15T07:54:17;9.90;;;3.45;;
10450;SDS011;5273;51.290;6.918;2024-02-15T07:56:45;6.72;;;3.85;;
10450;SDS011;5273;51.290;6.918;2024-02-15T07:59:13;9.38;;;4.07;;
10450;SDS011;5273;51.290;6.918;2024-02-15T08:01:41;8.95;;;4.28;;
10450;SDS011;5273;51.290;6.918;2024-02-15T08:04:08;6.90;;;4.15;;
10450;SDS011;5273;51.290;6.918;2024-02-15T08:06:35;12.68;;;4.30;;
10450;SDS011;5273;51.290;6.918;2024-02-15T08:09:05;9.77;;;4.18;;
10450;SDS011;5273;51.290;6.918;2024-02-15T08:11:31;8.30;;;3.90;;
10450;SDS011;5273;51.290;6.918;2024-02-15T08:13:59;11.50;;;4.68;;
10450;SDS011;5273;51.290;6.918;2024-02-15T08:16:26;13.23;;;4.53;;
10450;SDS011;5273;51.290;6.918;2024-02-15T08:18:53;7.20;;;4.20;;
10450;SDS011;5273;51.290;6.918;2024-02-15T08:21:24;7.47;;;3.53;;
10450;SDS011;5273;51.290;6.918;2024-02-15T08:23:54;7.63;;;3.87;;
10450;SDS011;5273;51.290;6.918;2024-02-15T08:26:22;9.10;;;4.43;;
10450;SDS011;5273;51.290;6.918;2024-02-15T08:28:49;8.55;;;4.45;;
10450;SDS011;5273;51.290;6.918;2024-02-15T08:31:17;8.60;;;4.10;;
10450;SDS011;5273;51.290;6.918;2024-02-15T08:33:44;7.32;;;3.63;;
10450;SDS011;5273;51.290;6.918;2024-02-15T08:36:11;6.85;;;3.55;;
10450;SDS011;5273;51.290;6.918;2024-02-15T08:38:38;8.70;;;4.18;;
10450;SDS011;5273;51.290;6.918;2024-02-15T08:41:06;8.03;;;4.13;;
10450;SDS011;5273;51.290;6.918;2024-02-15T08:43:34;7.60;;;4.13;;
10450;SDS011;5273;51.290;6.918;2024-02-15T08:46:04;5.27;;;3.50;;
10450;SDS011;5273;51.290;6.918;2024-02-15T08:48:32;12.68;;;3.67;;
10450;SDS011;5273;51.290;6.918;2024-02-15T08:50:59;12.32;;;3.83;;
10450;SDS011;5273;51.290;6.918;2024-02-15T08:53:26;10.02;;;4.00;;
10450;SDS011;5273;51.290;6.918;2024-02-15T08:55:52;7.78;;;3.65;;
10450;SDS011;5273;51.290;6.918;2024-02-15T08:58:20;7.85;;;3.75;;
10450;SDS011;5273;51.290;6.918;2024-02-15T09:00:48;9.80;;;3.90;;
10450;SDS011;5273;51.290;6.918;2024-02-15T09:03:15;6.15;;;3.20;;
10450;SDS011;5273;51.290;6.918;2024-02-15T09:05:43;7.70;;;3.38;;
10450;SDS011;5273;51.290;6.918;2024-02-15T09:08:10;11.77;;;3.63;;
10450;SDS011;5273;51.290;6.918;2024-02-15T09:10:37;8.90;;;3.10;;
10450;SDS011;5273;51.290;6.918;2024-02-15T09:13:04;9.43;;;3.70;;
10450;SDS011;5273;51.290;6.918;2024-02-15T09:15:32;7.05;;;3.20;;
10450;SDS011;5273;51.290;6.918;2024-02-15T09:18:00;7.50;;;2.92;;
10450;SDS011;5273;51.290;6.918;2024-02-15T09:20:27;10.77;;;4.10;;
10450;SDS011;5273;51.290;6.918;2024-02-15T09:22:56;5.45;;;3.58;;
10450;SDS011;5273;51.290;6.918;2024-02-15T09:25:23;10.57;;;3.53;;
10450;SDS011;5273;51.290;6.918;2024-02-15T09:27:50;7.53;;;3.17;;
10450;SDS011;5273;51.290;6.918;2024-02-15T09:30:19;6.32;;;3.22;;
10450;SDS011;5273;51.290;6.918;2024-02-15T09:32:49;8.30;;;2.90;;
10450;SDS011;5273;51.290;6.918;2024-02-15T09:35:18;4.97;;;2.55;;
10450;SDS011;5273;51.290;6.918;2024-02-15T09:37:46;4.40;;;2.55;;
10450;SDS011;5273;51.290;6.918;2024-02-15T09:40:14;3.35;;;2.22;;
10450;SDS011;5273;51.290;6.918;2024-02-15T09:42:43;7.38;;;2.30;;
10450;SDS011;5273;51.290;6.918;2024-02-15T09:45:10;5.47;;;2.45;;
10450;SDS011;5273;51.290;6.918;2024-02-15T09:47:39;4.47;;;2.42;;
10450;SDS011;5273;51.290;6.918;2024-02-15T09:50:07;7.68;;;2.35;;
10450;SDS011;5273;51.290;6.918;2024-02-15T09:52:37;6.82;;;2.28;;
10450;SDS011;5273;51.290;6.918;2024-02-15T09:55:05;4.97;;;2.05;;
10450;SDS011;5273;51.290;6.918;2024-02-15T09:57:35;5.65;;;2.15;;
10450;SDS011;5273;51.290;6.918;2024-02-15T10:00:03;6.38;;;2.70;;
10450;SDS011;5273;51.290;6.918;2024-02-15T10:02:32;7.15;;;2.30;;
10450;SDS011;5273;51.290;6.918;2024-02-15T10:05:02;2.88;;;2.03;;
10450;SDS011;5273;51.290;6.918;2024-02-15T10:07:29;4.28;;;2.10;;
10450;SDS011;5273;51.290;6.918;2024-02-15T10:09:57;9.10;;;2.25;;
10450;SDS011;5273;51.290;6.918;2024-02-15T10:12:42;2.58;;;1.85;;
10450;SDS011;5273;51.290;6.918;2024-02-15T10:15:09;6.75;;;1.77;;
10450;SDS011;5273;51.290;6.918;2024-02-15T10:17:36;7.13;;;2.33;;
10450;SDS011;5273;51.290;6.918;2024-02-15T10:20:03;2.20;;;1.77;;
10450;SDS011;5273;51.290;6.918;2024-02-15T10:22:31;4.88;;;2.08;;
10450;SDS011;5273;51.290;6.918;2024-02-15T10:25:12;3.80;;;1.90;;
10450;SDS011;5273;51.290;6.918;2024-02-15T10:27:39;3.90;;;2.03;;
10450;SDS011;5273;51.290;6.918;2024-02-15T10:30:16;4.40;;;1.70;;
10450;SDS011;5273;51.290;6.918;2024-02-15T10:32:44;4.55;;;1.80;;
10450;SDS011;5273;51.290;6.918;2024-02-15T10:35:18;6.60;;;2.10;;
10450;SDS011;5273;51.290;6.918;2024-02-15T10:37:46;5.13;;;2.08;;
10450;SDS011;5273;51.290;6.918;2024-02-15T10:40:18;4.63;;;2.40;;
10450;SDS011;5273;51.290;6.918;2024-02-15T10:42:47;6.03;;;2.22;;
10450;SDS011;5273;51.290;6.918;2024-02-15T10:45:14;6.68;;;2.17;;
10450;SDS011;5273;51.290;6.918;2024-02-15T10:47:43;4.35;;;2.15;;
10450;SDS011;5273;51.290;6.918;2024-02-15T10:50:12;5.07;;;1.73;;
10450;SDS011;5273;51.290;6.918;2024-02-15T10:52:43;3.67;;;1.70;;
10450;SDS011;5273;51.290;6.918;2024-02-15T10:55:14;7.75;;;1.95;;
10450;SDS011;5273;51.290;6.918;2024-02-15T10:57:48;6.72;;;2.30;;
10450;SDS011;5273;51.290;6.918;2024-02-15T11:00:18;7.38;;;1.77;;
10450;SDS011;5273;51.290;6.918;2024-02-15T11:02:54;6.00;;;2.00;;
10450;SDS011;5273;51.290;6.918;2024-02-15T11:05:27;6.88;;;1.80;;
10450;SDS011;5273;51.290;6.918;2024-02-15T11:07:59;4.00;;;1.70;;
10450;SDS011;5273;51.290;6.918;2024-02-15T11:10:28;4.57;;;2.03;;
10450;SDS011;5273;51.290;6.918;2024-02-15T11:12:56;4.85;;;1.85;;
10450;SDS011;5273;51.290;6.918;2024-02-15T11:15:43;4.40;;;1.70;;
10450;SDS011;5273;51.290;6.918;2024-02-15T11:21:16;4.15;;;1.90;;
10450;SDS011;5273;51.290;6.918;2024-02-15T11:23:43;6.32;;;1.80;;
10450;SDS011;5273;51.290;6.918;2024-02-15T11:26:42;3.88;;;2.05;;
10450;SDS011;5273;51.290;6.918;2024-02-15T11:29:19;2.47;;;1.67;;
10450;SDS011;5273;51.290;6.918;2024-02-15T11:32:35;5.20;;;1.77;;
10450;SDS011;5273;51.290;6.918;2024-02-15T11:35:09;5.85;;;2.08;;
10450;SDS011;5273;51.290;6.918;2024-02-15T11:40:29;5.15;;;1.75;;
10450;SDS011;5273;51.290;6.918;2024-02-15T11:43:49;4.78;;;1.48;;
10450;SDS011;5273;51.290;6.918;2024-02-15T11:46:21;3.83;;;1.50;;
10450;SDS011;5273;51.290;6.918;2024-02-15T11:48:51;3.65;;;1.58;;
10450;SDS011;5273;51.290;6.918;2024-02-15T11:51:25;3.53;;;1.70;;
10450;SDS011;5273;51.290;6.918;2024-02-15T11:53:59;6.07;;;1.70;;
10450;SDS011;5273;51.290;6.918;2024-02-15T11:56:32;4.03;;;1.83;;
10450;SDS011;5273;51.290;6.918;2024-02-15T11:59:18;3.60;;;1.70;;
10450;SDS011;5273;51.290;6.918;2024-02-15T12:01:54;4.68;;;1.30;;
10450;SDS011;5273;51.290;6.918;2024-02-15T12:04:39;5.38;;;1.65;;
10450;SDS011;5273;51.290;6.918;2024-02-15T12:07:24;2.38;;;1.58;;
10450;SDS011;5273;51.290;6.918;2024-02-15T12:10:14;3.53;;;1.88;;
10450;SDS011;5273;51.290;6.918;2024-02-15T12:12:56;4.75;;;1.88;;
10450;SDS011;5273;51.290;6.918;2024-02-15T12:15:43;3.97;;;1.60;;
10450;SDS011;5273;51.290;6.918;2024-02-15T12:18:42;4.35;;;1.25;;
10450;SDS011;5273;51.290;6.918;2024-02-15T12:21:12;4.57;;;2.25;;
10450;SDS011;5273;51.290;6.918;2024-02-15T12:23:42;4.25;;;1.95;;
10450;SDS011;5273;51.290;6.918;2024-02-15T12:26:10;3.03;;;1.50;;
10450;SDS011;5273;51.290;6.918;2024-02-15T12:28:39;2.35;;;1.92;;
10450;SDS011;5273;51.290;6.918;2024-02-15T12:31:08;3.20;;;1.65;;
10450;SDS011;5273;51.290;6.918;2024-02-15T12:33:38;5.32;;;1.98;;
10450;SDS011;5273;51.290;6.918;2024-02-15T12:36:05;2.33;;;1.60;;
10450;SDS011;5273;51.290;6.918;2024-02-15T12:38:33;4.13;;;1.80;;
10450;SDS011;5273;51.290;6.918;2024-02-15T12:41:02;2.75;;;1.33;;
10450;SDS011;5273;51.290;6.918;2024-02-15T12:43:29;3.90;;;1.60;;
10450;SDS011;5273;51.290;6.918;2024-02-15T12:45:56;5.10;;;1.80;;
10450;SDS011;5273;51.290;6.918;2024-02-15T12:48:24;4.80;;;1.70;;
10450;SDS011;5273;51.290;6.918;2024-02-15T12:50:51;3.47;;;1.42;;
10450;SDS011;5273;51.290;6.918;2024-02-15T12:53:23;1.55;;;1.40;;
10450;SDS011;5273;51.290;6.918;2024-02-15T12:55:53;2.83;;;1.40;;
10450;SDS011;5273;51.290;6.918;2024-02-15T12:58:21;2.88;;;1.60;;
10450;SDS011;5273;51.290;6.918;2024-02-15T13:00:49;4.90;;;1.63;;
10450;SDS011;5273;51.290;6.918;2024-02-15T13:03:17;3.28;;;2.05;;
10450;SDS011;5273;51.290;6.918;2024-02-15T13:05:46;4.10;;;1.33;;
10450;SDS011;5273;51.290;6.918;2024-02-15T13:08:13;3.65;;;1.70;;
10450;SDS011;5273;51.290;6.918;2024-02-15T13:10:43;2.35;;;1.60;;
10450;SDS011;5273;51.290;6.918;2024-02-15T13:13:10;4.43;;;1.63;;
10450;SDS011;5273;51.290;6.918;2024-02-15T13:15:39;3.00;;;1.60;;
10450;SDS011;5273;51.290;6.918;2024-02-15T13:18:06;2.60;;;1.40;;
10450;SDS011;5273;51.290;6.918;2024-02-15T13:20:34;3.42;;;1.48;;
10450;SDS011;5273;51.290;6.918;2024-02-15T13:23:04;4.40;;;1.50;;
10450;SDS011;5273;51.290;6.918;2024-02-15T13:25:35;5.35;;;2.05;;
10450;SDS011;5273;51.290;6.918;2024-02-15T13:28:04;3.88;;;1.70;;
10450;SDS011;5273;51.290;6.918;2024-02-15T13:30:33;4.93;;;1.33;;
10450;SDS011;5273;51.290;6.918;2024-02-15T13:33:01;2.67;;;1.55;;
10450;SDS011;5273;51.290;6.918;2024-02-15T13:35:28;3.92;;;1.98;;
10450;SDS011;5273;51.290;6.918;2024-02-15T13:37:55;3.22;;;1.40;;
10450;SDS011;5273;51.290;6.918;2024-02-15T13:40:24;5.00;;;1.70;;
10450;SDS011;5273;51.290;6.918;2024-02-15T13:42:54;1.77;;;1.40;;
10450;SDS011;5273;51.290;6.918;2024-02-15T13:45:24;2.00;;;1.52;;
10450;SDS011;5273;51.290;6.918;2024-02-15T13:47:57;1.40;;;1.30;;
10450;SDS011;5273;51.290;6.918;2024-02-15T13:50:26;2.70;;;1.38;;
10450;SDS011;5273;51.290;6.918;2024-02-15T13:52:53;1.92;;;1.27;;
10450;SDS011;5273;51.290;6.918;2024-02-15T13:55:19;4.43;;;1.70;;
10450;SDS011;5273;51.290;6.918;2024-02-15T13:57:48;4.68;;;1.70;;
10450;SDS011;5273;51.290;6.918;2024-02-15T14:00:15;2.65;;;1.30;;
10450;SDS011;5273;51.290;6.918;2024-02-15T14:02:47;2.92;;;1.52;;
10450;SDS011;5273;51.290;6.918;2024-02-15T14:05:15;6.28;;;1.58;;
10450;SDS011;5273;51.290;6.918;2024-02-15T14:07:45;3.50;;;1.70;;
10450;SDS011;5273;51.290;6.918;2024-02-15T14:10:13;1.02;;;1.00;;
10450;SDS011;5273;51.290;6.918;2024-02-15T14:12:40;3.30;;;1.67;;
10450;SDS011;5273;51.290;6.918;2024-02-15T14:15:09;3.17;;;1.63;;
10450;SDS011;5273;51.290;6.918;2024-02-15T14:17:36;4.38;;;1.50;;
10450;SDS011;5273;51.290;6.918;2024-02-15T14:20:04;3.95;;;1.85;;
10450;SDS011;5273;51.290;6.918;2024-02-15T14:22:33;4.75;;;1.65;;
10450;SDS011;5273;51.290;6.918;2024-02-15T14:25:01;3.55;;;1.40;;
10450;SDS011;5273;51.290;6.918;2024-02-15T14:27:30;3.22;;;1.33;;
10450;SDS011;5273;51.290;6.918;2024-02-15T14:29:57;2.13;;;1.48;;
10450;SDS011;5273;51.290;6.918;2024-02-15T14:32:43;2.58;;;1.60;;
10450;SDS011;5273;51.290;6.918;2024-02-15T14:35:28;4.47;;;1.67;;
10450;SDS011;5273;51.290;6.918;2024-02-15T14:37:57;4.15;;;1.58;;
10450;SDS011;5273;51.290;6.918;2024-02-15T14:40:27;3.83;;;1.50;;
10450;SDS011;5273;51.290;6.918;2024-02-15T14:42:53;3.03;;;1.60;;
10450;SDS011;5273;51.290;6.918;2024-02-15T14:45:20;5.78;;;1.75;;
10450;SDS011;5273;51.290;6.918;2024-02-15T14:47:49;1.95;;;1.50;;
10450;SDS011;5273;51.290;6.918;2024-02-15T14:50:16;4.82;;;1.55;;
10450;SDS011;5273;51.290;6.918;2024-02-15T14:52:43;3.83;;;1.90;;
10450;SDS011;5273;51.290;6.918;2024-02-15T14:55:09;2.75;;;1.63;;
10450;SDS011;5273;51.290;6.918;2024-02-15T14:57:36;3.67;;;1.50;;
10450;SDS011;5273;51.290;6.918;2024-02-15T15:00:04;2.55;;;1.45;;
10450;SDS011;5273;51.290;6.918;2024-02-15T15:02:36;4.88;;;1.75;;
10450;SDS011;5273;51.290;6.918;2024-02-15T15:05:04;3.47;;;1.50;;
10450;SDS011;5273;51.290;6.918;2024-02-15T15:07:49;3.38;;;1.63;;
10450;SDS011;5273;51.290;6.918;2024-02-15T15:10:34;2.25;;;1.38;;
10450;SDS011;5273;51.290;6.918;2024-02-15T15:13:18;5.32;;;2.10;;
10450;SDS011;5273;51.290;6.918;2024-02-15T15:15:46;2.25;;;1.40;;
10450;SDS011;5273;51.290;6.918;2024-02-15T15:18:13;2.95;;;1.20;;